Time;durP1;ratioP1;P1;durP2;ratioP2;P2;SDS_P1;SDS_P2;PMS_P1;PMS_P2;Temp;Humidity;BMP_temperature;BMP_pressure;BME280_temperature;BME280_humidity;BME280_pressure;Samples;Min_cycle;Max_cycle;Signal;HPM_P1;HPM_P2
2021/12/11 00:02:36;;;;;;;7.35;4.43;;;;;;;13.06;74.57;100916.47;5015205;28;20487;-90
2021/12/11 00:05:02;;;;;;;9.82;4.50;;;;;;;13.05;74.15;100920.81;5010513;28;20058;-90
2021/12/11 00:07:32;;;;;;;8.55;4.28;;;;;;;13.09;73.93;100929.75;4998481;28;20047;-90
2021/12/11 00:10:21;;;;;;;9.05;4.45;;;;;;;13.03;74.18;100927.72;4977664;28;20063;-90
2021/12/11 00:12:54;;;;;;;7.35;4.43;;;;;;;13.06;74.24;100932.22;4977575;28;20407;-90
2021/12/11 00:15:37;;;;;;;11.10;4.15;;;;;;;12.76;74.17;100882.78;4992986;28;20030;-90
2021/12/11 00:18:08;;;;;;;7.55;3.90;;;;;;;12.92;74.06;100924.59;4976602;28;20027;-88
2021/12/11 00:20:47;;;;;;;8.90;4.40;;;;;;;12.86;74.01;100915.56;4992050;28;20078;-88
2021/12/11 00:23:31;;;;;;;6.70;3.85;;;;;;;12.98;74.12;100951.09;4992879;28;20032;-88
2021/12/11 00:25:59;;;;;;;10.02;4.32;;;;;;;13.01;74.30;100960.84;5009008;28;20026;-88
2021/12/11 00:28:26;;;;;;;10.65;4.57;;;;;;;13.04;74.17;100967.13;4992044;28;20038;-88
2021/12/11 00:30:52;;;;;;;8.95;4.53;;;;;;;12.99;73.99;100955.50;4975576;28;20109;-90
2021/12/11 00:33:23;;;;;;;8.30;4.30;;;;;;;12.84;74.12;100936.44;4993081;28;20066;-88
2021/12/11 00:35:50;;;;;;;9.30;4.53;;;;;;;12.78;74.30;100928.28;4975841;28;20026;-90
2021/12/11 00:38:26;;;;;;;7.15;4.03;;;;;;;13.04;74.14;100975.00;4990098;28;20035;-89
2021/12/11 00:40:55;;;;;;;8.90;4.03;;;;;;;12.75;74.27;100939.53;4991444;28;20030;-89
2021/12/11 00:43:28;;;;;;;9.20;4.03;;;;;;;12.99;74.08;100984.34;5008439;28;20574;-88
2021/12/11 00:46:05;;;;;;;9.48;4.40;;;;;;;12.79;74.24;100951.97;4991611;28;20033;-89
2021/12/11 00:48:32;;;;;;;6.93;3.80;;;;;;;12.83;74.07;100969.63;4970332;28;20026;-89
2021/12/11 00:51:15;;;;;;;7.85;4.13;;;;;;;13.02;74.14;100995.00;4991647;28;20030;-90
2021/12/11 00:53:48;;;;;;;10.40;3.78;;;;;;;13.02;74.20;100997.63;4963672;28;20038;-90
2021/12/11 00:56:36;;;;;;;5.32;3.42;;;;;;;12.68;74.18;100940.06;4978631;28;20432;-90
2021/12/11 00:59:20;;;;;;;7.40;3.88;;;;;;;13.03;74.10;101002.03;4985620;28;20117;-90
2021/12/11 01:01:55;;;;;;;7.53;3.90;;;;;;;13.01;74.19;101001.03;4997725;28;20468;-91
2021/12/11 01:04:25;;;;;;;9.23;4.05;;;;;;;12.56;73.71;100927.28;4983159;28;20038;-90
2021/12/11 01:07:18;;;;;;;8.60;3.78;;;;;;;13.02;74.06;101008.09;5031120;28;20068;-91
2021/12/11 01:16:25;;;;;;;8.90;3.55;;;;;;;12.97;74.28;101008.69;5029051;28;20407;-92
2021/12/11 01:18:58;;;;;;;7.68;3.50;;;;;;;12.88;74.15;100985.56;5015889;28;20034;-90
2021/12/11 01:26:33;;;;;;;6.97;3.30;;;;;;;12.74;73.68;100961.34;5018256;28;20034;-92
2021/12/11 01:28:58;;;;;;;8.65;3.80;;;;;;;12.54;73.92;100936.78;5017407;28;20040;-88
2021/12/11 01:31:27;;;;;;;8.88;3.88;;;;;;;12.51;74.09;100936.63;5019173;28;20030;-91
2021/12/11 01:33:56;;;;;;;7.07;3.30;;;;;;;12.37;73.92;100911.50;5012219;28;20479;-89
2021/12/11 01:36:27;;;;;;;6.57;3.30;;;;;;;12.62;73.90;100966.88;5017190;28;20035;-89
2021/12/11 01:38:56;;;;;;;6.22;3.55;;;;;;;12.70;74.05;100974.19;5034074;28;20033;-89
2021/12/11 01:41:23;;;;;;;7.53;3.40;;;;;;;12.67;74.22;100971.44;5017178;28;20020;-90
2021/12/11 01:43:52;;;;;;;9.45;3.60;;;;;;;12.68;73.74;100955.78;5016828;28;20041;-89
2021/12/11 01:46:23;;;;;;;6.43;3.05;;;;;;;12.58;73.68;100953.56;5016856;28;20075;-89
2021/12/11 01:48:56;;;;;;;5.40;3.00;;;;;;;12.88;74.07;101000.41;5005013;28;20022;-90
2021/12/11 01:51:32;;;;;;;6.10;3.25;;;;;;;12.92;74.17;100998.00;4994330;28;20092;-89
2021/12/11 01:54:17;;;;;;;6.40;3.17;;;;;;;12.83;74.26;101005.44;5009795;28;20068;-90
2021/12/11 01:56:48;;;;;;;6.85;3.15;;;;;;;12.56;74.25;100953.47;5019182;28;20037;-89
2021/12/11 01:59:23;;;;;;;5.68;3.00;;;;;;;12.69;74.34;100990.75;4997239;28;20041;-91
2021/12/11 02:02:13;;;;;;;5.10;3.40;;;;;;;12.88;74.38;101027.50;5014201;28;20025;-90
2021/12/11 02:04:43;;;;;;;5.95;2.90;;;;;;;12.90;74.35;101019.72;5001264;28;20060;-90
2021/12/11 02:07:19;;;;;;;7.05;3.53;;;;;;;12.69;74.37;100996.00;4997163;28;20108;-90
2021/12/11 02:09:56;;;;;;;6.03;3.22;;;;;;;12.66;74.11;100983.66;4984546;28;20484;-91
2021/12/11 02:12:37;;;;;;;5.15;3.20;;;;;;;12.67;74.15;100993.28;4996161;28;20027;-90
2021/12/11 02:15:29;;;;;;;5.68;3.03;;;;;;;12.71;74.11;100991.72;5007608;28;20411;-90
2021/12/11 02:18:00;;;;;;;7.80;3.08;;;;;;;12.87;74.13;101024.81;5003636;28;20034;-90
2021/12/11 02:20:43;;;;;;;3.08;2.58;;;;;;;12.88;74.32;101024.88;5009868;28;20107;-90
2021/12/11 02:23:11;;;;;;;5.72;3.13;;;;;;;12.63;74.08;100993.97;4993962;28;20026;-89
2021/12/11 02:25:42;;;;;;;5.80;3.35;;;;;;;12.67;74.23;100992.41;5008757;28;20031;-89
2021/12/11 02:28:15;;;;;;;6.53;3.05;;;;;;;12.70;74.22;101006.56;4987053;28;20096;-91
2021/12/11 02:31:08;;;;;;;4.88;3.10;;;;;;;12.88;74.29;101030.13;4997841;28;20034;-92
2021/12/11 02:34:21;;;;;;;5.15;2.83;;;;;;;12.91;74.29;101029.38;5007359;28;20058;-92
2021/12/11 02:37:23;;;;;;;4.45;3.15;;;;;;;12.82;74.09;101017.59;4918597;29;20031;-90
2021/12/11 02:39:55;;;;;;;4.70;2.97;;;;;;;12.79;74.62;101025.34;4973336;28;20040;-90
2021/12/11 02:42:32;;;;;;;6.50;2.83;;;;;;;12.67;74.34;101000.25;5012834;28;20125;-91
2021/12/11 02:45:32;;;;;;;6.13;3.10;;;;;;;12.53;74.47;100969.03;4996019;28;20128;-90
2021/12/11 02:48:12;;;;;;;4.05;2.78;;;;;;;12.87;73.79;101020.47;5024234;28;20026;-91
2021/12/11 02:50:56;;;;;;;4.45;2.72;;;;;;;12.90;73.87;101020.63;5006189;28;20478;-90
2021/12/11 02:53:37;;;;;;;6.97;2.78;;;;;;;12.91;74.05;101027.66;5013022;28;20408;-91
2021/12/11 02:56:20;;;;;;;3.83;2.72;;;;;;;12.47;74.17;100971.34;5001014;28;20098;-91
2021/12/11 02:58:49;;;;;;;4.13;2.65;;;;;;;12.52;74.09;100975.09;4998840;28;20030;-91
2021/12/11 03:01:28;;;;;;;5.25;2.90;;;;;;;12.80;74.34;101032.34;5011826;28;20065;-91
2021/12/11 03:04:17;;;;;;;4.43;3.20;;;;;;;12.67;74.22;101011.63;4983040;28;20046;-91
2021/12/11 03:06:49;;;;;;;5.90;2.70;;;;;;;12.66;74.25;101016.78;4995134;28;20603;-91
2021/12/11 03:09:22;;;;;;;5.68;3.20;;;;;;;12.76;74.34;101045.25;5027803;28;20057;-91
2021/12/11 03:11:50;;;;;;;5.63;3.00;;;;;;;12.81;74.36;101038.53;5012125;28;20549;-92
2021/12/11 03:14:18;;;;;;;4.55;2.83;;;;;;;12.61;74.34;100988.66;4988314;28;20029;-92
2021/12/11 03:16:45;;;;;;;4.32;2.83;;;;;;;12.48;74.21;100975.75;5005584;28;20112;-91
2021/12/11 03:19:17;;;;;;;3.90;2.90;;;;;;;12.63;74.59;101005.31;5010967;28;20032;-91
2021/12/11 03:21:48;;;;;;;4.25;2.72;;;;;;;12.81;74.61;101044.66;4995745;28;20037;-91
2021/12/11 03:24:17;;;;;;;4.70;2.78;;;;;;;12.60;74.69;101007.81;4993232;28;20491;-90
2021/12/11 03:26:46;;;;;;;4.13;2.45;;;;;;;12.79;74.62;101032.31;5029291;28;20029;-91
2021/12/11 03:29:19;;;;;;;5.43;3.15;;;;;;;12.68;74.58;101028.22;5009732;28;20022;-91
2021/12/11 03:31:58;;;;;;;4.18;2.80;;;;;;;12.78;74.46;101047.13;5020836;28;20030;-91
2021/12/11 03:34:58;;;;;;;4.13;2.80;;;;;;;12.77;74.49;101047.06;5011253;28;20057;-92
2021/12/11 03:37:27;;;;;;;3.75;2.65;;;;;;;12.74;74.72;101052.13;5011932;28;20037;-92
2021/12/11 03:40:24;;;;;;;5.38;2.90;;;;;;;12.81;74.55;101043.75;4995919;28;20029;-91
2021/12/11 03:43:08;;;;;;;6.55;3.22;;;;;;;12.75;74.36;101046.97;5007260;28;20034;-92
2021/12/11 03:45:38;;;;;;;4.32;2.63;;;;;;;12.76;74.79;101055.72;5006063;28;20495;-90
2021/12/11 03:48:25;;;;;;;4.00;2.88;;;;;;;12.77;74.41;101042.69;5011641;28;20081;-90
2021/12/11 03:50:58;;;;;;;3.30;2.47;;;;;;;12.73;74.86;101047.72;4993026;28;20026;-91
2021/12/11 03:53:28;;;;;;;4.82;3.20;;;;;;;12.39;74.39;100994.53;5008433;28;20491;-91
2021/12/11 03:56:09;;;;;;;4.22;3.13;;;;;;;12.79;74.50;101055.91;4995512;28;20566;-91
2021/12/11 03:58:39;;;;;;;4.57;2.75;;;;;;;12.65;74.44;101043.81;5011917;28;20479;-91
2021/12/11 04:01:12;;;;;;;4.72;3.00;;;;;;;12.61;74.62;101043.69;5000783;28;20022;-92
2021/12/11 04:03:42;;;;;;;3.63;2.80;;;;;;;12.79;74.30;101077.75;5012466;28;20025;-91
2021/12/11 04:06:20;;;;;;;5.53;2.88;;;;;;;12.63;74.38;101034.16;4995322;28;20176;-91
2021/12/11 04:08:49;;;;;;;3.00;2.38;;;;;;;12.61;74.31;101025.34;4991734;28;20173;-91
2021/12/11 04:11:22;;;;;;;3.80;2.33;;;;;;;12.51;74.63;101017.84;5011771;28;20499;-92
2021/12/11 04:14:11;;;;;;;4.80;2.80;;;;;;;12.78;74.37;101051.47;4991438;28;20026;-92
2021/12/11 04:16:39;;;;;;;3.97;2.70;;;;;;;12.72;74.57;101056.38;5022528;28;20060;-92
2021/12/11 04:19:08;;;;;;;3.72;2.42;;;;;;;12.75;74.45;101061.81;4985099;28;20491;-92
2021/12/11 04:21:36;;;;;;;5.65;2.90;;;;;;;12.72;74.83;101067.78;5015551;28;20041;-90
2021/12/11 04:24:06;;;;;;;4.97;2.67;;;;;;;12.72;74.79;101072.13;5010901;28;20022;-91
2021/12/11 04:26:34;;;;;;;4.40;2.83;;;;;;;12.75;74.75;101069.66;5022791;28;20058;-91
2021/12/11 04:29:16;;;;;;;3.50;2.78;;;;;;;12.60;74.51;101039.25;4985105;28;20022;-92
2021/12/11 04:32:02;;;;;;;3.60;2.60;;;;;;;12.70;74.73;101066.81;4999045;28;20033;-92
2021/12/11 04:34:32;;;;;;;4.97;2.55;;;;;;;12.47;74.56;101033.34;5001393;28;20503;-90
2021/12/11 04:37:15;;;;;;;4.72;2.97;;;;;;;12.60;74.73;101062.81;4995697;28;20037;-91
2021/12/11 04:39:45;;;;;;;8.60;3.80;;;;;;;12.35;74.39;101020.50;4983556;28;20034;-90
2021/12/11 04:45:01;;;;;;;5.45;3.30;;;;;;;12.21;74.84;101001.44;4995752;28;20093;-91
2021/12/11 04:47:52;;;;;;;5.28;3.45;;;;;;;12.32;74.91;101013.41;4995143;28;20069;-92
2021/12/11 04:50:36;;;;;;;5.57;3.25;;;;;;;12.56;74.94;101059.97;5011713;28;20161;-91
2021/12/11 04:53:32;;;;;;;4.53;2.97;;;;;;;12.70;74.83;101066.81;4995151;28;20029;-91
2021/12/11 05:09:38;;;;;;;4.53;2.90;;;;;;;12.62;74.99;101076.00;5003527;28;20080;-90
2021/12/11 05:12:17;;;;;;;5.13;3.22;;;;;;;12.47;74.95;101063.03;5013563;28;20037;-90
2021/12/11 05:14:45;;;;;;;5.40;2.97;;;;;;;12.63;74.74;101076.06;4998222;28;20053;-90
2021/12/11 05:17:21;;;;;;;5.05;3.30;;;;;;;12.38;74.91;101031.13;4997896;28;20084;-91
2021/12/11 05:19:47;;;;;;;4.60;3.22;;;;;;;12.58;74.84;101085.44;4997703;28;20125;-91
2021/12/11 05:22:16;;;;;;;4.25;2.80;;;;;;;12.53;74.69;101071.22;4996892;28;20037;-91
2021/12/11 05:24:53;;;;;;;7.32;3.15;;;;;;;12.60;74.75;101088.13;5013914;28;20026;-91
2021/12/11 05:27:26;;;;;;;;;;;;;;;12.72;74.14;101078.28;4997172;28;20064;-90
2021/12/11 05:29:52;;;;;;;4.05;2.35;;;;;;;12.51;75.09;101078.09;5014123;28;19913;-91
2021/12/11 05:32:21;;;;;;;4.70;2.97;;;;;;;12.37;74.80;101050.28;4997335;28;20120;-90
2021/12/11 05:34:48;;;;;;;4.85;3.33;;;;;;;12.61;74.85;101084.69;4997619;28;20038;-91
2021/12/11 05:37:14;;;;;;;5.68;3.00;;;;;;;12.59;74.65;101094.19;5008918;28;20175;-91
2021/12/11 05:39:42;;;;;;;5.03;3.30;;;;;;;12.49;75.24;101089.28;4997379;28;20529;-91
2021/12/11 05:42:15;;;;;;;5.93;2.90;;;;;;;12.21;75.31;101028.56;5013902;28;20095;-90
2021/12/11 05:45:00;;;;;;;5.28;3.17;;;;;;;12.40;75.52;101067.06;4982145;28;20030;-90
2021/12/11 05:50:54;;;;;;;4.47;2.92;;;;;;;12.29;75.57;101046.38;5009786;28;20049;-90
2021/12/11 05:53:22;;;;;;;5.63;3.38;;;;;;;12.29;75.01;101033.28;4997483;28;20487;-90
2021/12/11 05:55:54;;;;;;;5.60;3.13;;;;;;;12.37;74.88;101047.66;5004076;28;20038;-90
2021/12/11 06:01:18;;;;;;;4.72;3.33;;;;;;;12.50;74.78;101047.47;4998168;28;20056;-91
2021/12/11 06:03:52;;;;;;;4.50;2.88;;;;;;;12.54;74.77;101062.50;4999285;28;20022;-90
2021/12/11 06:06:22;;;;;;;5.03;3.35;;;;;;;12.33;74.69;101045.72;5013091;28;20141;-89
2021/12/11 06:08:49;;;;;;;5.47;3.13;;;;;;;12.42;74.44;101049.72;4992864;28;20275;-90
2021/12/11 06:11:17;;;;;;;5.10;2.90;;;;;;;12.38;75.11;101073.94;4987907;28;20396;-90
2021/12/11 06:13:45;;;;;;;4.72;3.10;;;;;;;12.42;74.96;101089.00;5012277;28;20030;-90
2021/12/11 06:16:11;;;;;;;6.93;3.30;;;;;;;12.26;74.87;101054.09;4996585;28;20508;-90
2021/12/11 06:18:43;;;;;;;4.28;3.00;;;;;;;12.48;74.60;101084.88;4994767;28;20036;-89
2021/12/11 06:21:11;;;;;;;4.85;3.30;;;;;;;12.39;74.86;101077.44;5014369;28;20034;-90
2021/12/11 06:23:39;;;;;;;5.45;3.53;;;;;;;12.51;74.99;101103.34;5007646;28;20037;-91
2021/12/11 06:26:11;;;;;;;7.53;3.78;;;;;;;12.26;75.05;101075.03;5012882;28;20400;-90
2021/12/11 06:28:42;;;;;;;5.03;3.30;;;;;;;12.28;75.08;101076.00;4995849;28;20042;-87
2021/12/11 06:31:07;;;;;;;6.03;3.50;;;;;;;12.45;74.77;101121.41;5001730;28;20029;-90
2021/12/11 06:33:35;;;;;;;6.18;3.45;;;;;;;12.46;75.08;101124.09;4996020;28;20487;-90
2021/12/11 06:36:10;;;;;;;5.63;3.47;;;;;;;12.04;75.33;101057.28;4998688;28;20522;-90
2021/12/11 06:38:39;;;;;;;5.00;3.25;;;;;;;12.01;75.69;101072.00;5004423;28;20032;-90
2021/12/11 06:41:09;;;;;;;5.75;3.80;;;;;;;12.45;75.14;101135.41;5001787;28;20042;-89
2021/12/11 06:43:35;;;;;;;6.28;3.45;;;;;;;12.37;75.16;101119.28;4986369;28;20109;-90
2021/12/11 06:46:02;;;;;;;7.75;4.40;;;;;;;12.26;74.97;101075.03;5001802;28;20022;-89
2021/12/11 06:48:28;;;;;;;5.68;3.50;;;;;;;12.18;75.19;101075.50;4990991;28;20038;-87
2021/12/11 06:50:59;;;;;;;6.80;4.30;;;;;;;12.11;75.32;101072.50;5011335;28;20522;-88
2021/12/11 06:53:31;;;;;;;6.10;3.75;;;;;;;12.48;74.87;101098.88;5007957;28;20030;-90
2021/12/11 06:55:58;;;;;;;6.50;3.65;;;;;;;11.93;74.81;101033.16;4997701;28;20033;-90
2021/12/11 06:58:27;;;;;;;7.35;3.97;;;;;;;12.13;74.99;101065.63;5009780;28;20026;-92
2021/12/11 07:00:56;;;;;;;7.68;3.95;;;;;;;12.48;75.23;101117.19;4996082;28;20051;-92
2021/12/11 07:03:23;;;;;;;70.85;27.42;;;;;;;12.13;74.64;101063.03;4997038;28;20095;-90
2021/12/11 07:05:52;;;;;;;47.85;19.30;;;;;;;12.30;75.36;101101.44;4992651;28;20108;-91
2021/12/11 07:08:26;;;;;;;47.50;19.55;;;;;;;12.24;74.67;101069.72;4997378;28;20037;-91
2021/12/11 07:10:56;;;;;;;35.10;15.55;;;;;;;12.46;75.04;101091.75;5008466;28;20040;-90
2021/12/11 07:13:28;;;;;;;37.53;15.23;;;;;;;12.34;74.66;101069.38;4999492;28;20029;-91
2021/12/11 07:15:56;;;;;;;36.80;14.20;;;;;;;12.29;75.01;101070.81;5001899;28;20053;-90
2021/12/11 07:18:27;;;;;;;31.52;13.52;;;;;;;12.52;74.96;101097.31;5007100;28;20057;-90
2021/12/11 07:20:55;;;;;;;28.92;13.65;;;;;;;12.44;74.83;101110.00;4995120;28;20199;-91
2021/12/11 07:23:21;;;;;;;27.42;12.77;;;;;;;12.46;74.78;101104.84;5010756;28;20383;-91
2021/12/11 07:26:15;;;;;;;30.20;13.73;;;;;;;12.27;75.66;101110.84;5010758;28;20037;-91
2021/12/11 07:28:46;;;;;;;26.83;12.43;;;;;;;12.37;75.52;101118.38;5004667;28;20095;-90
2021/12/11 07:31:11;;;;;;;33.28;12.73;;;;;;;12.20;74.90;101067.75;4998380;28;20040;-89
2021/12/11 07:33:52;;;;;;;32.15;13.23;;;;;;;12.53;74.60;101122.69;5005259;28;20061;-96
2021/12/11 07:36:20;;;;;;;27.00;12.60;;;;;;;12.41;74.67;101089.81;4994544;28;20041;-88
2021/12/11 07:38:50;;;;;;;26.02;11.75;;;;;;;12.55;74.82;101114.09;5010922;28;20533;-92
2021/12/11 07:41:18;;;;;;;25.85;11.68;;;;;;;12.51;74.68;101101.66;4995763;28;20132;-90
2021/12/11 07:43:45;;;;;;;29.17;12.25;;;;;;;12.18;74.95;101044.09;5017835;28;20029;-90
2021/12/11 07:46:19;;;;;;;30.00;11.70;;;;;;;12.40;75.13;101100.19;5009066;28;20056;-89
2021/12/11 07:52:14;;;;;;;25.38;12.55;;;;;;;12.47;75.31;101115.41;5027683;28;20091;-91
2021/12/11 07:54:46;;;;;;;30.55;12.63;;;;;;;12.44;75.18;101107.38;5009568;28;20091;-90
2021/12/11 07:57:36;;;;;;;29.70;12.90;;;;;;;12.45;75.06;101122.31;4999388;28;20033;-95
2021/12/11 08:00:17;;;;;;;25.90;11.85;;;;;;;11.80;74.63;100994.97;4996034;28;20022;-95
2021/12/11 08:03:05;;;;;;;24.10;11.88;;;;;;;12.48;74.93;101114.59;4985309;28;20040;-96
2021/12/11 08:05:51;;;;;;;27.40;11.27;;;;;;;12.47;75.08;101125.00;5001738;28;20180;-91
2021/12/11 08:08:27;;;;;;;27.73;12.03;;;;;;;11.95;75.17;101029.81;4959456;28;20035;-94
2021/12/11 08:11:06;;;;;;;25.45;11.57;;;;;;;12.47;75.01;101115.41;4977100;28;20512;-93
2021/12/11 08:13:34;;;;;;;24.40;11.13;;;;;;;12.39;75.23;101112.38;4987227;28;20030;-96
2021/12/11 08:19:41;;;;;;;22.40;10.70;;;;;;;12.50;75.08;101114.66;4993691;28;20040;-95
2021/12/11 08:22:14;;;;;;;23.27;10.85;;;;;;;12.31;75.16;101086.63;4966029;28;20050;-90
2021/12/11 08:24:41;;;;;;;23.60;10.95;;;;;;;12.51;75.15;101124.31;4990850;28;20034;-90
2021/12/11 08:27:23;;;;;;;22.75;10.95;;;;;;;12.43;74.67;101102.97;4990796;28;20026;-91
2021/12/11 08:30:28;;;;;;;21.48;10.80;;;;;;;12.51;75.09;101125.25;4974784;28;20121;-92
2021/12/11 08:33:07;;;;;;;23.77;10.38;;;;;;;12.48;75.09;101132.91;4991084;28;20519;-93
2021/12/11 08:36:06;;;;;;;22.13;10.40;;;;;;;12.50;75.15;101127.78;4978258;28;20061;-92
2021/12/11 08:38:38;;;;;;;21.02;10.18;;;;;;;12.39;75.13;101116.75;4991938;28;20031;-93
2021/12/11 08:41:24;;;;;;;19.92;10.27;;;;;;;12.50;75.06;101125.16;4975248;28;20067;-91
2021/12/11 08:44:17;;;;;;;20.02;9.43;;;;;;;12.63;74.58;101128.47;4963782;28;20030;-92
2021/12/11 08:46:51;;;;;;;19.58;10.05;;;;;;;12.62;74.30;101125.78;4975073;28;20519;-93
2021/12/11 08:49:29;;;;;;;18.83;9.63;;;;;;;12.51;74.46;101112.13;4988398;28;20397;-92
2021/12/11 08:52:20;;;;;;;20.05;9.57;;;;;;;12.43;74.39;101102.97;4965739;28;20034;-93
2021/12/11 08:54:55;;;;;;;19.63;9.73;;;;;;;12.49;74.39;101089.28;4996183;28;20030;-92
2021/12/11 08:57:25;;;;;;;19.50;9.55;;;;;;;12.60;74.86;101122.19;4972677;28;20096;-94
2021/12/11 09:00:45;;;;;;;18.15;9.43;;;;;;;12.65;74.66;101117.19;4973440;28;20137;-94
2021/12/11 09:06:43;;;;;;;19.83;9.05;;;;;;;12.64;74.55;101111.03;5000724;28;20585;-95
2021/12/11 09:09:50;;;;;;;20.27;9.75;;;;;;;12.66;74.47;101101.53;4998226;28;20176;-94
2021/12/11 09:12:40;;;;;;;20.35;9.65;;;;;;;12.41;74.82;101058.38;5003488;28;20036;-93
2021/12/11 09:15:26;;;;;;;21.75;9.00;;;;;;;12.51;74.49;101059.75;5015649;28;20129;-92
2021/12/11 09:18:01;;;;;;;18.33;9.00;;;;;;;12.47;74.42;101070.00;5016553;28;20025;-96
2021/12/11 09:20:58;;;;;;;18.83;9.00;;;;;;;12.63;74.51;101090.88;5010817;28;20026;-95
2021/12/11 09:23:31;;;;;;;19.08;8.75;;;;;;;12.26;74.80;101041.88;5018692;28;20458;-96
2021/12/11 09:26:15;;;;;;;21.30;9.02;;;;;;;12.34;74.63;101039.63;5003617;28;20065;-94
2021/12/11 09:32:17;;;;;;;17.20;8.15;;;;;;;12.52;74.96;101072.00;5018107;28;20140;-91
2021/12/11 09:34:51;;;;;;;18.63;8.43;;;;;;;12.54;75.16;101073.00;5014229;28;20088;-94
2021/12/11 09:37:33;;;;;;;18.75;8.27;;;;;;;12.39;74.90;101043.41;5001447;28;20025;-95
2021/12/11 09:44:01;;;;;;;18.75;8.43;;;;;;;12.67;74.69;101076.25;5022028;28;20044;-90
2021/12/11 09:46:49;;;;;;;20.05;8.75;;;;;;;12.59;74.99;101065.34;4959210;28;20052;-92
2021/12/11 09:49:42;;;;;;;15.85;7.93;;;;;;;12.61;74.72;101068.97;5016323;28;20033;-91
2021/12/11 09:52:27;;;;;;;16.73;8.27;;;;;;;12.57;74.86;101067.94;4995531;28;20132;-92
2021/12/11 09:55:05;;;;;;;18.90;8.73;;;;;;;12.61;74.47;101055.84;4998405;28;20531;-93
2021/12/11 09:57:52;;;;;;;19.20;8.80;;;;;;;12.47;74.58;101034.22;4998918;28;20033;-94
2021/12/11 10:00:21;;;;;;;16.33;8.10;;;;;;;12.71;74.47;101070.34;4997014;28;20038;-94
2021/12/11 10:02:56;;;;;;;15.93;7.35;;;;;;;12.64;74.58;101074.38;5002951;28;20037;-95
2021/12/11 10:09:30;;;;;;;15.23;7.60;;;;;;;12.72;74.37;101078.28;5015110;28;20054;-95
2021/12/11 10:12:38;;;;;;;14.10;7.15;;;;;;;12.65;74.85;101072.63;5019092;28;20123;-94
2021/12/11 10:15:17;;;;;;;14.82;7.63;;;;;;;12.56;74.83;101066.09;5010066;28;20113;-95
2021/12/11 10:17:59;;;;;;;13.45;7.03;;;;;;;12.51;75.41;101071.91;5025888;28;20431;-96
2021/12/11 10:52:59;;;;;;;12.65;6.65;;;;;;;12.04;75.25;100974.41;5163087;23;20128;-96
2021/12/11 11:24:22;;;;;;;15.63;6.45;;;;;;;11.81;75.25;100895.63;4913763;24;20029;-95
2021/12/11 11:26:49;;;;;;;12.18;6.07;;;;;;;11.91;75.01;100915.31;5437507;23;20050;-96
2021/12/11 11:32:03;;;;;;;13.98;6.22;;;;;;;11.86;74.63;100879.25;4884313;23;20056;-95
2021/12/11 11:35:03;;;;;;;10.82;5.50;;;;;;;11.92;75.17;100909.28;4858680;29;20033;-95
2021/12/11 11:37:34;;;;;;;17.13;6.25;;;;;;;11.64;76.16;100891.25;4845976;29;20033;-95
2021/12/11 11:40:27;;;;;;;15.02;6.13;;;;;;;11.87;75.81;100867.94;4843995;29;20034;-95
2021/12/11 11:42:57;;;;;;;11.95;5.68;;;;;;;11.99;75.27;100879.06;4855378;29;20065;-95
2021/12/11 11:45:27;;;;;;;12.57;5.97;;;;;;;12.63;75.60;101001.81;4837347;29;20029;-96
2021/12/11 11:48:06;;;;;;;12.10;5.95;;;;;;;12.31;75.56;100963.56;4838246;29;20054;-96
2021/12/11 11:50:38;;;;;;;14.57;5.82;;;;;;;11.87;75.27;100887.16;4845960;29;20492;-93
2021/12/11 11:53:04;;;;;;;14.45;6.20;;;;;;;11.74;75.27;100862.09;4841777;29;20048;-96
2021/12/11 11:55:47;;;;;;;12.75;6.07;;;;;;;11.80;75.75;100882.44;4843570;29;20033;-95
2021/12/11 11:58:32;;;;;;;10.70;5.50;;;;;;;11.88;75.73;100893.31;4830233;29;20113;-95
2021/12/11 12:01:28;;;;;;;16.00;6.05;;;;;;;12.06;75.55;100915.19;4858528;29;20105;-95
2021/12/11 12:04:02;;;;;;;14.20;5.63;;;;;;;11.82;75.75;100889.53;4828165;29;20034;-96
2021/12/11 12:06:48;;;;;;;13.00;5.55;;;;;;;11.71;75.45;100868.91;4833210;29;20037;-96
2021/12/11 12:09:23;;;;;;;12.68;5.78;;;;;;;11.89;75.12;100893.41;4835837;29;20045;-96
2021/12/11 12:11:51;;;;;;;10.90;5.35;;;;;;;11.87;75.48;100899.34;4820802;29;20101;-96
2021/12/11 12:14:25;;;;;;;10.13;5.05;;;;;;;11.86;75.34;100884.50;4824317;29;20048;-96
2021/12/11 12:16:57;;;;;;;9.75;5.47;;;;;;;12.71;75.06;101021.44;4879089;29;20039;-96
2021/12/11 12:19:43;;;;;;;11.15;5.35;;;;;;;12.73;74.74;101018.91;4843055;29;20516;-96
2021/12/11 12:22:29;;;;;;;12.65;5.68;;;;;;;12.75;74.96;101020.75;4860427;29;20026;-95
2021/12/11 12:24:56;;;;;;;11.77;5.40;;;;;;;11.99;74.81;100889.53;4845820;29;20096;-96
2021/12/11 12:27:32;;;;;;;10.73;5.57;;;;;;;12.30;75.06;100944.34;4844655;29;20033;-95
2021/12/11 12:30:51;;;;;;;10.13;4.88;;;;;;;12.70;75.15;101005.63;4839623;29;20026;-96
2021/12/11 12:33:47;;;;;;;11.43;4.80;;;;;;;12.59;75.63;101010.34;4854518;29;20046;-95
2021/12/11 12:36:18;;;;;;;10.88;5.00;;;;;;;12.16;74.60;100904.38;4856415;29;20030;-95
2021/12/11 12:38:49;;;;;;;8.93;4.68;;;;;;;12.71;75.10;100996.97;4873558;29;20041;-95
2021/12/11 12:41:27;;;;;;;10.88;4.72;;;;;;;12.69;75.21;101002.13;4840493;29;20029;-95
2021/12/11 12:44:37;;;;;;;8.23;4.68;;;;;;;12.71;75.20;101003.09;4839872;29;20033;-96
2021/12/11 12:47:13;;;;;;;11.07;5.18;;;;;;;12.40;75.13;100948.28;4875492;29;20026;-94
2021/12/11 12:50:02;;;;;;;8.35;4.65;;;;;;;11.89;75.01;100863.72;4858375;29;20039;-95
2021/12/11 12:52:36;;;;;;;7.53;4.75;;;;;;;11.85;75.15;100867.88;4846002;29;20033;-95
2021/12/11 12:55:11;;;;;;;9.60;4.68;;;;;;;11.76;75.41;100843.88;4835391;29;20048;-96
2021/12/11 12:57:41;;;;;;;10.38;5.50;;;;;;;12.00;74.98;100865.16;4852133;29;20034;-95
2021/12/11 13:00:19;;;;;;;8.95;4.38;;;;;;;12.71;75.07;100989.09;4853929;29;20026;-96
2021/12/11 13:02:47;;;;;;;12.10;4.60;;;;;;;11.90;74.46;100836.75;4847677;29;20037;-96
2021/12/11 13:05:35;;;;;;;10.90;5.03;;;;;;;12.83;74.32;100985.34;4845809;29;20037;-95
2021/12/11 13:08:17;;;;;;;10.48;4.70;;;;;;;12.81;74.64;100984.38;4844764;29;20038;-95
2021/12/11 13:10:56;;;;;;;13.27;5.35;;;;;;;12.02;74.49;100851.34;4839566;29;20034;-95
2021/12/11 13:13:24;;;;;;;12.25;5.10;;;;;;;11.97;74.75;100842.34;4848562;29;20037;-95
2021/12/11 13:16:36;;;;;;;9.50;4.53;;;;;;;12.83;74.52;100989.69;4839713;29;20040;-95
2021/12/11 13:27:39;;;;;;;11.60;4.88;;;;;;;12.08;74.12;100857.69;4881967;29;20049;-96
2021/12/11 13:30:31;;;;;;;10.38;5.15;;;;;;;12.07;74.14;100855.91;4901217;24;20050;-96
2021/12/11 13:33:07;;;;;;;11.88;5.40;;;;;;;12.06;73.96;100844.53;4823093;29;20039;-96
2021/12/11 13:35:37;;;;;;;10.70;5.40;;;;;;;12.13;74.07;100858.84;4843782;29;20095;-96
2021/12/11 13:38:08;;;;;;;12.45;4.57;;;;;;;11.96;74.42;100837.06;4826141;29;20046;-96
2021/12/11 13:40:47;;;;;;;14.88;5.40;;;;;;;12.16;73.98;100859.84;4824700;29;20045;-96
2021/12/11 13:43:28;;;;;;;10.82;4.82;;;;;;;12.09;74.22;100849.03;4822985;29;20031;-96
2021/12/11 13:46:02;;;;;;;8.88;4.70;;;;;;;12.90;74.11;100983.91;4828621;29;20138;-92
2021/12/11 13:48:28;;;;;;;69.30;8.35;;;;;;;11.94;79.74;100849.19;4841129;29;20038;-90
2021/12/11 13:50:58;;;;;;;37.70;7.57;;;;;;;13.00;79.34;100983.53;4808441;29;20042;-89
2021/12/11 13:53:25;;;;;;;28.13;6.25;;;;;;;12.64;80.64;100930.28;4823287;29;20038;-88
2021/12/11 13:56:05;;;;;;;43.38;8.43;;;;;;;12.50;82.36;100947.03;4821679;29;20500;-92
2021/12/11 13:58:38;;;;;;;51.65;11.45;;;;;;;12.63;81.95;100952.03;4823679;29;20411;-90
2021/12/11 14:01:24;;;;;;;74.78;11.63;;;;;;;12.87;78.24;100969.75;4823702;29;20042;-93
2021/12/11 14:03:54;;;;;;;39.35;8.50;;;;;;;12.81;77.93;100955.56;4804900;29;20490;-94
2021/12/11 14:06:21;;;;;;;37.50;8.25;;;;;;;12.83;77.58;100946.03;4816332;29;20039;-94
2021/12/11 14:08:55;;;;;;;35.50;8.25;;;;;;;12.62;77.72;100916.19;4807474;29;20053;-95
2021/12/11 14:11:21;;;;;;;37.60;9.07;;;;;;;12.86;78.04;100968.88;4815284;29;20042;-91
2021/12/11 14:13:56;;;;;;;31.73;7.65;;;;;;;12.73;77.47;100942.91;4810256;29;20125;-94